Time;durP1;ratioP1;P1;durP2;ratioP2;P2;SDS_P1;SDS_P2;PMS_P1;PMS_P2;Temp;Humidity;BMP_temperature;BMP_pressure;BME280_temperature;BME280_humidity;BME280_pressure;Samples;Min_cycle;Max_cycle;Signal;HPM_P1;HPM_P2
2021/04/04 00:01:33;;;;;;;4.28;2.30;;;24.00;40.50;;;;;;5082268;28;20071;-71
2021/04/04 00:03:59;;;;;;;4.53;2.33;;;24.00;40.50;;;;;;5085229;28;20043;-72
2021/04/04 00:06:24;;;;;;;4.00;2.03;;;24.00;40.40;;;;;;5084922;28;20154;-72
2021/04/04 00:08:50;;;;;;;4.13;2.00;;;24.00;40.40;;;;;;5081226;28;20024;-72
2021/04/04 00:11:16;;;;;;;3.92;2.10;;;23.90;40.40;;;;;;5088347;28;20032;-73
2021/04/04 00:13:42;;;;;;;3.22;1.90;;;23.90;40.30;;;;;;5086645;28;20052;-71
2021/04/04 00:16:08;;;;;;;3.60;1.88;;;23.90;40.30;;;;;;5083267;28;20024;-73
2021/04/04 00:18:33;;;;;;;3.47;1.73;;;23.90;40.30;;;;;;5086384;28;20024;-72
2021/04/04 00:20:59;;;;;;;4.28;1.90;;;23.90;40.20;;;;;;5088620;28;20111;-72
2021/04/04 00:23:25;;;;;;;3.35;1.75;;;23.90;40.20;;;;;;5081716;28;20568;-71
2021/04/04 00:25:51;;;;;;;3.97;1.92;;;23.90;40.20;;;;;;5085779;28;20154;-71
2021/04/04 00:28:16;;;;;;;4.32;2.00;;;23.90;40.10;;;;;;5081369;28;20082;-71
2021/04/04 00:30:42;;;;;;;3.83;2.00;;;23.90;40.10;;;;;;5065226;28;20024;-72
2021/04/04 00:33:08;;;;;;;3.40;1.67;;;23.90;40.10;;;;;;5083299;28;20051;-73
2021/04/04 00:35:33;;;;;;;3.60;1.80;;;23.90;40.00;;;;;;5049687;28;20533;-72
2021/04/04 00:37:59;;;;;;;3.60;1.90;;;23.80;39.90;;;;;;5059469;28;20324;-71
2021/04/04 00:40:31;;;;;;;3.90;2.05;;;23.80;40.00;;;;;;5073634;28;20080;-72
2021/04/04 00:42:57;;;;;;;3.33;1.60;;;23.80;39.90;;;;;;5084972;28;20024;-72
2021/04/04 00:45:25;;;;;;;4.00;2.00;;;23.80;39.90;;;;;;5076529;28;20753;-73
2021/04/04 00:47:51;;;;;;;3.05;1.58;;;23.80;39.80;;;;;;5068197;28;20028;-72
2021/04/04 00:50:20;;;;;;;3.28;1.80;;;23.80;39.80;;;;;;5080417;28;20021;-71
2021/04/04 00:52:47;;;;;;;3.65;1.90;;;23.80;39.80;;;;;;5078607;28;20497;-72
2021/04/04 00:55:14;;;;;;;3.72;1.90;;;23.80;39.80;;;;;;5086355;28;20101;-71
2021/04/04 00:57:41;;;;;;;4.13;2.00;;;23.80;39.80;;;;;;5088075;28;20066;-73
2021/04/04 01:00:09;;;;;;;3.75;2.03;;;23.80;39.80;;;;;;5086518;28;20036;-71
2021/04/04 01:02:39;;;;;;;3.83;2.15;;;23.70;39.70;;;;;;5086151;28;20031;-71
2021/04/04 01:05:07;;;;;;;3.13;1.60;;;23.70;39.70;;;;;;5068924;28;20211;-72
2021/04/04 01:07:34;;;;;;;3.05;1.63;;;23.70;39.70;;;;;;5080728;28;20083;-72
2021/04/04 01:10:03;;;;;;;3.63;1.70;;;23.70;39.70;;;;;;5086365;28;20109;-73
2021/04/04 01:12:53;;;;;;;4.32;1.73;;;23.70;39.70;;;;;;5076882;28;20021;-72
2021/04/04 01:15:28;;;;;;;3.75;1.90;;;23.70;39.70;;;;;;5068321;28;20028;-73
2021/04/04 01:18:00;;;;;;;3.97;1.90;;;23.60;39.60;;;;;;5085183;28;20028;-72
2021/04/04 01:20:34;;;;;;;3.03;1.70;;;23.70;39.60;;;;;;5083298;28;20035;-71
2021/04/04 01:23:03;;;;;;;3.40;1.83;;;23.70;39.60;;;;;;5087039;28;20106;-72
2021/04/04 01:25:38;;;;;;;4.00;1.80;;;23.60;39.60;;;;;;5078226;28;20653;-72
2021/04/04 01:28:11;;;;;;;3.30;1.60;;;23.60;39.50;;;;;;5085687;28;20043;-72
2021/04/04 01:30:40;;;;;;;4.38;1.77;;;23.60;39.50;;;;;;5085657;28;20074;-72
2021/04/04 01:33:10;;;;;;;4.40;1.70;;;23.60;39.50;;;;;;5086733;28;20024;-72
2021/04/04 01:35:38;;;;;;;3.17;1.80;;;23.60;39.50;;;;;;5086281;28;20040;-72
2021/04/04 01:38:14;;;;;;;3.72;1.90;;;23.60;39.50;;;;;;5051780;28;20074;-72
2021/04/04 01:40:46;;;;;;;3.50;1.80;;;23.60;39.50;;;;;;5068464;28;20032;-72
2021/04/04 01:43:14;;;;;;;3.42;1.60;;;23.60;39.50;;;;;;5080903;28;20776;-71
2021/04/04 01:45:41;;;;;;;3.42;1.75;;;23.60;39.50;;;;;;5085421;28;20027;-71
2021/04/04 01:48:09;;;;;;;2.78;1.42;;;23.60;39.50;;;;;;5086103;28;20024;-72
2021/04/04 01:50:35;;;;;;;2.30;1.48;;;23.50;39.40;;;;;;5083448;28;20320;-71
2021/04/04 01:53:02;;;;;;;4.80;2.25;;;23.60;39.50;;;;;;5077446;28;20475;-71
2021/04/04 01:55:28;;;;;;;3.05;1.63;;;23.60;39.50;;;;;;5061783;28;20055;-72
2021/04/04 01:57:55;;;;;;;2.47;1.40;;;23.50;39.40;;;;;;5078038;28;20020;-71
2021/04/04 02:00:26;;;;;;;2.53;1.50;;;23.50;39.40;;;;;;5077911;28;20032;-72
2021/04/04 02:02:52;;;;;;;2.33;1.50;;;23.50;39.40;;;;;;5075826;28;20103;-72
2021/04/04 02:05:18;;;;;;;2.83;1.50;;;23.50;39.40;;;;;;5083887;28;20761;-72
2021/04/04 02:07:47;;;;;;;3.30;1.60;;;23.50;39.40;;;;;;5071812;28;20031;-72
2021/04/04 02:10:15;;;;;;;3.20;1.50;;;23.50;39.30;;;;;;5080269;28;20039;-72
2021/04/04 02:12:43;;;;;;;2.63;1.40;;;23.50;39.30;;;;;;5065490;28;20513;-71
2021/04/04 02:15:14;;;;;;;2.70;1.50;;;23.50;39.30;;;;;;5076030;28;20024;-71
2021/04/04 02:17:41;;;;;;;3.75;1.48;;;23.50;39.30;;;;;;5073387;28;20028;-72
2021/04/04 02:20:13;;;;;;;2.90;1.70;;;23.50;39.30;;;;;;5079092;28;20067;-71
2021/04/04 02:22:40;;;;;;;2.53;1.48;;;23.40;39.30;;;;;;5085281;28;20024;-72
2021/04/04 02:25:09;;;;;;;2.40;1.33;;;23.40;39.30;;;;;;5085526;28;20036;-72
2021/04/04 02:27:34;;;;;;;2.67;1.50;;;23.40;39.20;;;;;;5079213;28;20442;-73
2021/04/04 02:30:03;;;;;;;3.35;1.40;;;23.40;39.20;;;;;;5084405;28;20032;-72
2021/04/04 02:32:31;;;;;;;2.20;1.40;;;23.40;39.20;;;;;;5065199;28;20091;-71
2021/04/04 02:35:00;;;;;;;2.15;1.30;;;23.40;39.20;;;;;;5081145;28;20433;-72
2021/04/04 02:37:25;;;;;;;2.33;1.30;;;23.40;39.20;;;;;;5064623;28;20039;-72
2021/04/04 02:40:05;;;;;;;2.60;1.40;;;23.40;39.20;;;;;;5077195;28;20028;-72
2021/04/04 02:42:32;;;;;;;3.90;1.50;;;23.40;39.20;;;;;;5063335;28;20128;-71
2021/04/04 02:45:00;;;;;;;3.03;1.50;;;23.40;39.20;;;;;;5074958;28;20044;-73
2021/04/04 02:48:04;;;;;;;2.92;1.50;;;23.40;39.70;;;;;;5065762;28;20085;-71
2021/04/04 02:50:31;;;;;;;2.33;1.40;;;23.40;39.20;;;;;;5059370;28;20122;-71
2021/04/04 02:53:02;;;;;;;2.90;1.30;;;23.30;39.70;;;;;;5083476;28;20182;-74
2021/04/04 02:55:30;;;;;;;2.35;1.38;;;23.40;39.20;;;;;;5083313;28;20057;-72
2021/04/04 02:57:57;;;;;;;2.58;1.50;;;23.30;39.20;;;;;;5083747;28;20043;-71
2021/04/04 03:00:24;;;;;;;2.90;1.40;;;23.40;39.20;;;;;;5084243;28;20514;-73
2021/04/04 03:02:52;;;;;;;2.80;1.50;;;23.30;39.40;;;;;;5083227;28;20040;-71
2021/04/04 03:05:22;;;;;;;2.13;1.38;;;23.30;39.10;;;;;;5085235;28;20055;-73
2021/04/04 03:07:49;;;;;;;2.30;1.40;;;23.30;39.10;;;;;;5075740;28;20111;-72
2021/04/04 03:10:15;;;;;;;2.20;1.30;;;23.30;39.10;;;;;;5079980;28;20120;-73
2021/04/04 03:12:43;;;;;;;2.00;1.20;;;23.30;39.10;;;;;;5078688;28;20406;-73
2021/04/04 03:15:12;;;;;;;2.60;1.25;;;23.30;39.10;;;;;;5084232;28;20632;-72
2021/04/04 03:17:44;;;;;;;2.70;1.40;;;23.30;39.10;;;;;;5082478;28;20036;-72
2021/04/04 03:20:11;;;;;;;2.65;1.45;;;23.30;39.10;;;;;;5070814;28;20044;-72
2021/04/04 03:22:45;;;;;;;2.67;1.30;;;23.30;39.10;;;;;;5084115;28;20568;-72
2021/04/04 03:25:11;;;;;;;2.13;1.27;;;23.30;39.10;;;;;;5084444;28;20032;-73
2021/04/04 03:27:41;;;;;;;2.55;1.25;;;23.30;39.10;;;;;;5065212;28;20143;-74
2021/04/04 03:30:08;;;;;;;2.15;1.30;;;23.30;39.10;;;;;;5064995;28;20118;-72
2021/04/04 03:32:36;;;;;;;2.85;1.20;;;23.30;39.10;;;;;;5075535;28;20036;-71
2021/04/04 03:35:04;;;;;;;2.28;1.10;;;23.30;39.10;;;;;;5085150;28;20100;-73
2021/04/04 03:37:30;;;;;;;1.88;1.10;;;23.30;39.10;;;;;;5084643;28;20453;-71
2021/04/04 03:39:56;;;;;;;2.42;1.20;;;23.30;39.10;;;;;;5076009;28;20107;-72
2021/04/04 03:42:24;;;;;;;2.08;1.30;;;23.20;39.00;;;;;;5066732;28;20036;-73
2021/04/04 03:44:50;;;;;;;1.85;1.10;;;23.30;39.10;;;;;;5075094;28;20067;-72
2021/04/04 03:47:16;;;;;;;1.85;1.20;;;23.30;39.10;;;;;;5065767;28;20074;-71
2021/04/04 03:49:43;;;;;;;1.92;1.00;;;23.20;39.00;;;;;;5068067;28;20028;-72
2021/04/04 03:52:09;;;;;;;2.17;1.20;;;23.30;39.10;;;;;;5063342;28;20118;-73
2021/04/04 03:54:40;;;;;;;1.90;1.02;;;23.20;39.00;;;;;;5073959;28;20448;-72
2021/04/04 03:57:07;;;;;;;2.40;1.20;;;23.20;39.00;;;;;;5073212;28;20419;-72
2021/04/04 03:59:34;;;;;;;2.08;1.23;;;23.20;39.00;;;;;;5083228;28;20039;-72
2021/04/04 04:02:01;;;;;;;2.10;1.02;;;23.20;39.00;;;;;;5062317;28;20074;-72
2021/04/04 04:04:27;;;;;;;3.95;1.25;;;23.20;39.00;;;;;;5066792;28;20025;-71
2021/04/04 04:06:55;;;;;;;2.33;1.10;;;23.20;39.00;;;;;;5077909;28;20371;-74
2021/04/04 04:09:21;;;;;;;2.05;1.20;;;23.20;39.00;;;;;;5066265;28;20024;-73
2021/04/04 04:11:48;;;;;;;2.38;0.95;;;23.20;39.00;;;;;;5059647;28;20086;-73
2021/04/04 04:14:21;;;;;;;1.90;1.10;;;23.20;39.00;;;;;;5075984;28;20379;-73
2021/04/04 04:16:47;;;;;;;1.77;1.02;;;23.20;39.00;;;;;;5073107;28;20107;-72
2021/04/04 04:19:15;;;;;;;2.00;1.00;;;23.20;39.00;;;;;;5083030;28;20035;-71
2021/04/04 04:21:41;;;;;;;1.50;1.00;;;23.10;38.90;;;;;;5079323;28;20142;-73
2021/04/04 04:24:11;;;;;;;2.00;1.00;;;23.10;38.90;;;;;;5087724;28;20040;-73
2021/04/04 04:26:44;;;;;;;2.55;1.00;;;23.10;38.90;;;;;;5083490;28;20376;-73
2021/04/04 04:29:14;;;;;;;1.52;0.90;;;23.10;38.90;;;;;;5080641;28;20099;-71
2021/04/04 04:31:43;;;;;;;1.77;1.10;;;23.10;38.90;;;;;;5085878;28;20032;-71
2021/04/04 04:34:10;;;;;;;1.60;0.98;;;23.10;38.90;;;;;;5069601;28;20032;-71
2021/04/04 04:36:38;;;;;;;1.77;1.20;;;23.10;38.90;;;;;;5066563;28;20415;-74
2021/04/04 04:39:06;;;;;;;1.92;1.15;;;23.10;38.90;;;;;;5069439;28;20078;-71
2021/04/04 04:41:38;;;;;;;2.22;1.05;;;23.10;39.40;;;;;;5082953;28;20481;-73
2021/04/04 04:44:06;;;;;;;2.40;1.10;;;23.10;38.90;;;;;;5078607;28;20035;-72
2021/04/04 04:46:33;;;;;;;1.65;1.00;;;23.10;38.80;;;;;;5078014;28;20070;-72
2021/04/04 04:49:00;;;;;;;2.05;1.20;;;23.10;38.80;;;;;;5085330;28;20051;-71
2021/04/04 04:51:26;;;;;;;1.90;1.10;;;23.10;38.90;;;;;;5091877;28;20883;-72
2021/04/04 04:53:52;;;;;;;1.83;1.20;;;23.10;38.80;;;;;;5071159;28;20035;-71
2021/04/04 04:56:20;;;;;;;1.95;1.05;;;23.10;38.80;;;;;;5050861;28;21923;-71
2021/04/04 04:58:47;;;;;;;2.38;1.02;;;23.10;38.80;;;;;;5084501;28;20059;-73
2021/04/04 05:01:24;;;;;;;2.25;1.13;;;23.10;38.80;;;;;;5060280;28;20091;-72
2021/04/04 05:03:50;;;;;;;1.67;0.95;;;23.10;38.80;;;;;;5085777;28;20024;-72
2021/04/04 05:06:18;;;;;;;2.05;1.20;;;23.00;38.70;;;;;;5067575;28;20376;-73
2021/04/04 05:08:45;;;;;;;1.48;0.90;;;23.10;38.80;;;;;;5084080;28;20969;-72
2021/04/04 05:11:14;;;;;;;1.63;1.00;;;23.00;38.70;;;;;;5068595;28;20043;-73
2021/04/04 05:13:42;;;;;;;1.77;1.00;;;23.10;38.80;;;;;;5057896;28;20058;-71
2021/04/04 05:16:13;;;;;;;1.70;0.95;;;23.10;39.30;;;;;;5065911;28;20470;-71
2021/04/04 05:18:47;;;;;;;1.85;1.00;;;23.00;38.70;;;;;;5080321;28;20034;-73
2021/04/04 05:21:19;;;;;;;1.75;1.10;;;23.00;38.60;;;;;;5065572;28;20426;-72
2021/04/04 05:23:45;;;;;;;1.10;0.75;;;23.00;38.70;;;;;;5079082;28;20945;-71
2021/04/04 05:26:14;;;;;;;1.13;0.90;;;23.00;38.70;;;;;;5067634;28;20059;-73
2021/04/04 05:28:40;;;;;;;1.42;0.98;;;23.00;38.70;;;;;;5082487;28;20101;-71
2021/04/04 05:31:06;;;;;;;2.05;1.10;;;23.00;38.70;;;;;;5086156;28;20036;-71
2021/04/04 05:33:31;;;;;;;2.42;1.20;;;23.00;38.60;;;;;;5081734;28;20447;-71
2021/04/04 05:36:02;;;;;;;1.65;1.10;;;23.00;38.60;;;;;;5053687;28;20039;-72
2021/04/04 05:38:28;;;;;;;1.20;0.80;;;23.00;38.60;;;;;;5069733;28;20139;-71
2021/04/04 05:40:56;;;;;;;2.00;1.15;;;23.00;38.60;;;;;;5068697;28;20810;-73
2021/04/04 05:43:25;;;;;;;2.27;0.97;;;23.00;38.60;;;;;;5069260;28;20406;-72
2021/04/04 05:46:23;;;;;;;1.75;1.10;;;23.00;38.60;;;;;;5086342;28;20126;-72
2021/04/04 05:49:05;;;;;;;1.95;1.05;;;23.00;38.70;;;;;;5075167;28;20036;-72
2021/04/04 05:51:49;;;;;;;1.63;1.00;;;23.00;38.60;;;;;;5065893;28;20031;-73
2021/04/04 05:54:24;;;;;;;2.28;1.00;;;23.00;38.60;;;;;;5084567;28;20028;-72
2021/04/04 05:56:57;;;;;;;2.15;1.00;;;23.00;38.60;;;;;;5079872;28;20024;-72
2021/04/04 05:59:46;;;;;;;1.60;0.90;;;23.00;38.60;;;;;;5067220;28;20032;-72
2021/04/04 06:02:32;;;;;;;;;;;23.00;38.60;;;;;;5064983;28;20058;-72
2021/04/04 06:05:01;;;;;;;1.58;1.00;;;23.00;38.60;;;;;;5078392;28;19916;-72
2021/04/04 06:07:45;;;;;;;;;;;23.00;38.60;;;;;;5075756;28;20028;-73
2021/04/04 06:10:37;;;;;;;1.63;0.90;;;22.90;38.50;;;;;;5064447;28;19908;-73
2021/04/04 06:13:30;;;;;;;1.58;1.10;;;22.90;38.50;;;;;;5058804;28;20047;-72
2021/04/04 06:16:08;;;;;;;1.88;1.00;;;22.90;38.50;;;;;;5078464;28;20021;-72
2021/04/04 06:18:52;;;;;;;1.60;1.02;;;22.90;38.50;;;;;;5065813;28;20062;-72
2021/04/04 06:21:37;;;;;;;1.65;0.98;;;22.90;38.50;;;;;;5071254;28;20040;-72
2021/04/04 06:24:41;;;;;;;1.60;0.90;;;22.90;38.50;;;;;;5078792;28;20040;-71
2021/04/04 06:27:12;;;;;;;2.90;1.15;;;22.90;38.60;;;;;;5079369;28;20032;-69
2021/04/04 06:29:51;;;;;;;1.40;0.88;;;22.90;38.60;;;;;;5084859;28;20081;-69
2021/04/04 06:32:24;;;;;;;1.60;1.00;;;22.90;38.70;;;;;;5075731;28;20037;-69
2021/04/04 06:34:55;;;;;;;1.65;1.05;;;22.90;38.60;;;;;;5080800;28;20463;-70
2021/04/04 06:38:20;;;;;;;1.58;1.05;;;22.90;38.70;;;;;;5063208;28;20032;-69
2021/04/04 06:41:29;;;;;;;1.38;0.90;;;22.90;38.60;;;;;;5001247;28;20044;-70
2021/04/04 06:44:10;;;;;;;1.33;0.90;;;22.90;38.70;;;;;;4988518;28;20069;-69
2021/04/04 06:46:58;;;;;;;1.60;0.90;;;22.90;38.70;;;;;;5061444;28;20052;-69
2021/04/04 06:49:29;;;;;;;1.48;0.98;;;22.90;38.70;;;;;;5081282;28;20028;-70
2021/04/04 06:52:08;;;;;;;1.48;0.80;;;22.90;38.70;;;;;;5073408;28;20783;-70
2021/04/04 06:54:37;;;;;;;1.50;0.85;;;22.90;38.70;;;;;;5052403;28;20373;-69
2021/04/04 06:57:33;;;;;;;1.20;0.80;;;22.90;38.70;;;;;;5080595;28;20039;-69
2021/04/04 07:00:12;;;;;;;1.55;1.00;;;22.90;38.70;;;;;;5083580;28;20099;-69
2021/04/04 07:02:53;;;;;;;1.05;0.80;;;22.90;38.70;;;;;;5080290;28;20047;-69
2021/04/04 07:05:20;;;;;;;1.27;0.80;;;22.90;38.70;;;;;;5083982;28;20126;-70
2021/04/04 07:08:17;;;;;;;1.60;0.90;;;22.90;38.70;;;;;;5076410;28;20094;-68
2021/04/04 07:11:03;;;;;;;1.40;0.90;;;22.90;38.70;;;;;;5077858;28;20059;-71
2021/04/04 07:13:48;;;;;;;1.52;0.82;;;22.90;38.70;;;;;;5079418;28;20021;-69
2021/04/04 07:16:20;;;;;;;1.35;0.80;;;22.90;38.70;;;;;;5081365;28;20061;-71
2021/04/04 07:19:08;;;;;;;2.95;0.95;;;22.90;38.80;;;;;;5076332;28;20411;-70
2021/04/04 07:21:52;;;;;;;1.55;0.82;;;22.90;38.80;;;;;;5076901;28;20493;-69
2021/04/04 07:24:30;;;;;;;1.17;0.80;;;22.90;38.70;;;;;;5067679;28;20088;-69
2021/04/04 07:27:02;;;;;;;0.77;0.63;;;22.90;38.80;;;;;;5074354;28;20044;-69
2021/04/04 07:29:43;;;;;;;1.40;0.85;;;22.90;38.80;;;;;;5076037;28;20020;-71
2021/04/04 07:32:27;;;;;;;1.40;0.90;;;22.90;38.80;;;;;;5078379;28;20028;-69
2021/04/04 07:35:02;;;;;;;2.00;0.90;;;22.90;38.80;;;;;;5076606;28;20116;-71
2021/04/04 07:37:28;;;;;;;1.67;1.00;;;22.90;38.80;;;;;;5080046;28;20546;-69
2021/04/04 07:40:04;;;;;;;0.80;0.80;;;22.90;38.90;;;;;;5084337;28;20034;-69
2021/04/04 07:42:58;;;;;;;2.17;1.10;;;22.90;38.90;;;;;;5076172;28;20032;-70
2021/04/04 07:45:39;;;;;;;1.63;0.90;;;22.90;38.90;;;;;;5078770;28;20170;-69
2021/04/04 07:48:27;;;;;;;1.30;0.90;;;22.90;38.90;;;;;;5074371;28;20028;-69
2021/04/04 07:51:08;;;;;;;1.92;1.10;;;23.00;39.00;;;;;;5076502;28;20107;-69
2021/04/04 07:53:44;;;;;;;1.90;0.88;;;23.00;39.00;;;;;;5069260;28;20075;-69
2021/04/04 07:56:22;;;;;;;1.85;0.85;;;22.90;38.90;;;;;;5065409;28;20024;-68
2021/04/04 07:59:06;;;;;;;1.33;0.90;;;23.00;39.50;;;;;;5087347;28;20024;-70
2021/04/04 08:02:10;;;;;;;1.30;0.80;;;22.90;39.00;;;;;;5075349;28;20849;-71
2021/04/04 08:05:04;;;;;;;1.88;0.80;;;23.00;39.00;;;;;;5069031;28;20090;-69
2021/04/04 08:07:50;;;;;;;1.88;0.90;;;23.00;39.00;;;;;;5060221;28;20402;-69
2021/04/04 08:10:24;;;;;;;2.00;0.98;;;23.00;39.00;;;;;;5082272;28;20020;-71
2021/04/04 08:13:00;;;;;;;1.77;1.00;;;23.00;39.10;;;;;;5074800;28;20025;-68
2021/04/04 08:15:57;;;;;;;2.67;0.98;;;23.00;39.10;;;;;;5070573;28;20394;-66
2021/04/04 08:18:23;;;;;;;1.65;1.00;;;23.00;39.20;;;;;;5077267;28;20071;-70
2021/04/04 08:20:52;;;;;;;1.73;0.90;;;23.00;39.20;;;;;;5080843;28;20126;-70
2021/04/04 08:23:29;;;;;;;3.42;1.20;;;23.00;39.20;;;;;;5078212;28;20082;-71
2021/04/04 08:26:05;;;;;;;3.80;1.10;;;23.00;39.20;;;;;;5080082;28;20047;-72
2021/04/04 08:28:47;;;;;;;2.05;0.90;;;23.00;39.30;;;;;;5080267;28;20410;-70
2021/04/04 08:31:31;;;;;;;3.45;0.90;;;23.00;39.30;;;;;;5074053;28;20122;-68
2021/04/04 08:34:13;;;;;;;1.98;1.00;;;23.00;39.30;;;;;;5077632;28;20034;-72
2021/04/04 08:36:43;;;;;;;2.05;0.90;;;23.00;39.30;;;;;;5063289;28;20082;-71
2021/04/04 08:39:12;;;;;;;2.95;1.00;;;23.00;39.30;;;;;;5073862;28;20037;-72
2021/04/04 08:41:39;;;;;;;2.55;0.90;;;23.10;39.30;;;;;;5083323;28;20024;-72
2021/04/04 08:44:26;;;;;;;3.15;1.05;;;23.10;39.50;;;;;;5082158;28;20020;-72
2021/04/04 08:46:56;;;;;;;2.40;1.13;;;23.00;39.30;;;;;;5035735;28;20083;-71
2021/04/04 08:49:22;;;;;;;3.92;1.05;;;23.10;39.30;;;;;;5067757;28;20472;-72
2021/04/04 08:52:11;;;;;;;1.58;1.00;;;23.10;39.40;;;;;;5069108;28;20524;-71
2021/04/04 08:54:40;;;;;;;3.45;1.00;;;23.10;39.30;;;;;;5072049;28;20057;-72
2021/04/04 08:57:07;;;;;;;2.10;0.90;;;23.10;39.30;;;;;;5077912;28;20036;-73
2021/04/04 08:59:35;;;;;;;1.90;0.93;;;23.10;39.30;;;;;;5067149;28;20039;-71
2021/04/04 09:02:07;;;;;;;1.73;0.80;;;23.10;39.20;;;;;;5079545;28;20150;-72
2021/04/04 09:04:40;;;;;;;2.70;1.10;;;23.10;39.30;;;;;;5060243;28;20608;-72
2021/04/04 09:07:06;;;;;;;3.83;1.30;;;23.10;39.20;;;;;;5081917;28;20016;-73
2021/04/04 09:09:44;;;;;;;3.78;1.30;;;23.10;39.10;;;;;;5083830;28;20031;-73
2021/04/04 09:12:10;;;;;;;2.23;0.90;;;23.10;39.10;;;;;;5061398;28;20044;-73
2021/04/04 09:14:41;;;;;;;2.10;0.90;;;23.10;39.10;;;;;;5067124;28;20039;-72
2021/04/04 09:17:17;;;;;;;2.33;1.08;;;23.10;39.10;;;;;;5060367;28;20066;-73
2021/04/04 09:19:45;;;;;;;3.70;1.00;;;23.10;39.60;;;;;;5067454;28;20035;-71
2021/04/04 09:22:18;;;;;;;4.13;0.90;;;23.10;39.10;;;;;;5064673;28;20032;-75
2021/04/04 09:24:52;;;;;;;2.20;0.90;;;23.10;38.90;;;;;;5074720;28;20271;-71
2021/04/04 09:27:21;;;;;;;2.90;1.02;;;23.10;38.90;;;;;;5077975;28;20034;-72
2021/04/04 09:29:50;;;;;;;3.15;1.10;;;23.20;39.00;;;;;;5082745;28;20058;-72
2021/04/04 09:32:35;;;;;;;2.15;0.95;;;23.10;38.90;;;;;;5067082;28;20040;-71
2021/04/04 09:35:05;;;;;;;2.92;0.98;;;23.10;38.90;;;;;;5069991;28;20020;-74
2021/04/04 09:37:30;;;;;;;;;;;23.10;38.90;;;;;;5083241;28;20035;-71
2021/04/04 09:39:57;;;;;;;2.38;1.00;;;23.20;38.90;;;;;;5073458;28;19912;-74
2021/04/04 09:42:23;;;;;;;2.30;1.15;;;23.20;38.90;;;;;;5068092;28;20131;-73
2021/04/04 09:44:49;;;;;;;3.08;1.00;;;23.20;38.90;;;;;;5051413;28;20077;-76
2021/04/04 09:47:14;;;;;;;3.92;1.10;;;23.20;38.90;;;;;;5083410;28;20024;-72
2021/04/04 09:49:41;;;;;;;5.47;1.10;;;23.20;39.00;;;;;;5078847;28;20588;-76
2021/04/04 09:52:27;;;;;;;3.33;1.00;;;23.20;38.90;;;;;;5084652;28;20113;-74
2021/04/04 09:55:08;;;;;;;3.05;1.02;;;23.20;38.90;;;;;;5079966;28;20056;-71
2021/04/04 09:57:43;;;;;;;4.57;1.00;;;23.20;38.90;;;;;;5078213;28;20063;-74
2021/04/04 10:00:37;;;;;;;1.88;1.00;;;23.20;39.00;;;;;;5066159;28;20110;-73
2021/04/04 10:03:14;;;;;;;2.85;1.08;;;23.20;39.10;;;;;;5080146;28;20490;-72
2021/04/04 10:05:42;;;;;;;3.08;1.10;;;23.20;39.10;;;;;;5082652;28;20111;-69
2021/04/04 10:08:17;;;;;;;4.18;1.10;;;23.30;39.20;;;;;;5070181;28;20119;-71
2021/04/04 10:10:44;;;;;;;2.03;1.02;;;23.30;39.20;;;;;;5084013;28;20035;-70
2021/04/04 10:13:10;;;;;;;3.85;1.15;;;23.30;39.20;;;;;;5076709;28;20027;-73
2021/04/04 10:15:55;;;;;;;3.00;1.10;;;23.30;39.20;;;;;;5067423;28;20032;-72
2021/04/04 10:18:22;;;;;;;6.03;1.42;;;23.30;39.20;;;;;;5076077;28;20478;-72
2021/04/04 10:20:57;;;;;;;2.65;0.98;;;23.30;39.20;;;;;;5080906;28;20366;-72
2021/04/04 10:23:34;;;;;;;2.78;0.95;;;23.30;39.10;;;;;;5065933;28;20174;-72
2021/04/04 10:26:08;;;;;;;2.55;1.10;;;23.30;39.10;;;;;;5086043;28;20034;-72
2021/04/04 10:28:53;;;;;;;2.83;0.88;;;23.30;39.10;;;;;;5078177;28;20508;-72
2021/04/04 10:31:20;;;;;;;5.53;1.13;;;23.40;39.10;;;;;;5075748;28;20127;-72
2021/04/04 10:34:02;;;;;;;3.95;1.10;;;23.30;39.00;;;;;;5073413;28;20043;-72
2021/04/04 10:36:28;;;;;;;2.40;0.93;;;23.30;39.00;;;;;;5082749;28;20107;-73
2021/04/04 10:38:55;;;;;;;4.20;1.08;;;23.30;38.90;;;;;;5063459;28;20130;-72
2021/04/04 10:41:36;;;;;;;3.83;1.30;;;23.40;39.00;;;;;;5082364;28;20125;-72
2021/04/04 10:44:02;;;;;;;2.58;1.00;;;23.40;38.90;;;;;;5075653;28;20028;-72
2021/04/04 10:46:30;;;;;;;5.60;1.10;;;23.30;38.80;;;;;;5078519;28;20127;-72
2021/04/04 10:48:59;;;;;;;3.15;1.20;;;23.30;38.90;;;;;;5071449;28;20102;-73
2021/04/04 10:51:25;;;;;;;2.90;0.90;;;23.40;38.80;;;;;;5084663;28;20024;-72
2021/04/04 10:53:51;;;;;;;2.72;0.90;;;23.40;38.80;;;;;;5078389;28;20101;-73
2021/04/04 10:56:17;;;;;;;3.45;1.02;;;23.40;38.80;;;;;;5078304;28;20108;-72
2021/04/04 10:58:44;;;;;;;3.38;1.00;;;23.40;38.70;;;;;;5092604;28;20122;-72
2021/04/04 11:01:12;;;;;;;2.20;0.90;;;23.40;38.70;;;;;;5084505;28;20435;-72
2021/04/04 11:03:40;;;;;;;3.58;0.90;;;23.40;38.60;;;;;;5084917;28;20031;-72
2021/04/04 11:06:06;;;;;;;3.20;1.10;;;23.40;38.70;;;;;;5079931;28;20034;-72
2021/04/04 11:08:32;;;;;;;4.38;1.20;;;23.40;38.70;;;;;;5085712;28;20027;-72
2021/04/04 11:10:59;;;;;;;1.92;1.17;;;23.40;38.80;;;;;;5072948;28;20073;-72
2021/04/04 11:13:24;;;;;;;2.08;0.98;;;23.40;38.80;;;;;;5080724;28;20112;-72
2021/04/04 11:16:02;;;;;;;2.72;1.10;;;23.40;38.90;;;;;;5083455;28;20131;-73
2021/04/04 11:18:34;;;;;;;4.97;1.30;;;23.40;38.80;;;;;;5080784;28;20093;-73
2021/04/04 11:21:04;;;;;;;3.25;1.42;;;23.40;38.80;;;;;;5070531;28;20869;-73
2021/04/04 11:23:30;;;;;;;4.13;1.75;;;23.40;38.80;;;;;;5062250;28;20645;-73
2021/04/04 11:25:56;;;;;;;4.50;1.60;;;23.40;39.30;;;;;;5067389;28;20126;-72
2021/04/04 11:28:26;;;;;;;4.65;1.77;;;23.40;38.60;;;;;;5070652;28;20117;-73
2021/04/04 11:30:55;;;;;;;3.58;1.80;;;23.40;38.60;;;;;;5090595;28;20032;-73
2021/04/04 11:33:26;;;;;;;4.70;2.45;;;23.40;38.50;;;;;;5085259;28;20158;-72
2021/04/04 11:36:09;;;;;;;4.63;2.70;;;23.40;38.40;;;;;;5090253;28;20024;-72
2021/04/04 11:38:58;;;;;;;5.50;2.47;;;23.40;38.40;;;;;;5066223;28;20117;-72
2021/04/04 11:41:28;;;;;;;4.85;2.50;;;23.40;38.40;;;;;;5070299;28;20060;-72
2021/04/04 11:44:17;;;;;;;4.18;2.30;;;23.40;38.40;;;;;;5087057;28;20027;-72
2021/04/04 11:46:44;;;;;;;4.20;2.55;;;23.40;38.40;;;;;;5083607;28;20887;-72
2021/04/04 11:49:31;;;;;;;4.15;2.45;;;23.50;38.40;;;;;;5082197;28;20706;-73
2021/04/04 11:51:58;;;;;;;4.93;2.65;;;23.40;38.40;;;;;;5078859;28;20054;-72
2021/04/04 11:54:46;;;;;;;5.25;2.80;;;23.40;38.40;;;;;;5083086;28;20020;-73
2021/04/04 11:57:17;;;;;;;5.47;2.90;;;23.50;38.50;;;;;;5086873;28;20638;-72
2021/04/04 11:59:43;;;;;;;4.57;2.83;;;23.50;38.50;;;;;;5085375;28;20845;-73
2021/04/04 12:02:12;;;;;;;4.57;2.60;;;23.50;38.50;;;;;;5084362;28;20036;-72
2021/04/04 12:04:48;;;;;;;4.72;2.38;;;23.50;38.50;;;;;;5088554;28;20034;-73
2021/04/04 12:07:18;;;;;;;4.10;2.42;;;23.50;38.60;;;;;;5070589;28;20032;-72
2021/04/04 12:09:46;;;;;;;4.55;2.70;;;23.50;38.60;;;;;;5089270;28;20097;-72
2021/04/04 12:12:13;;;;;;;5.30;2.53;;;23.50;38.60;;;;;;5091031;28;20028;-73
2021/04/04 12:14:49;;;;;;;4.55;2.65;;;23.50;38.60;;;;;;5079418;28;20106;-73
2021/04/04 12:17:16;;;;;;;4.55;2.50;;;23.50;38.60;;;;;;5080458;28;20082;-72
2021/04/04 12:19:43;;;;;;;4.78;2.45;;;23.50;38.60;;;;;;5077035;28;20031;-72
2021/04/04 12:22:10;;;;;;;4.60;2.50;;;23.50;38.60;;;;;;5083103;28;20130;-73
2021/04/04 12:24:44;;;;;;;4.55;2.50;;;23.50;38.60;;;;;;5070465;28;20032;-73
2021/04/04 12:27:12;;;;;;;4.75;2.53;;;23.50;39.10;;;;;;5067977;28;20660;-72
2021/04/04 12:29:51;;;;;;;4.32;2.45;;;23.50;38.50;;;;;;5087645;28;20020;-72
2021/04/04 12:32:24;;;;;;;4.03;2.30;;;23.50;38.50;;;;;;5085857;28;20067;-73
2021/04/04 12:34:55;;;;;;;4.30;2.28;;;23.50;38.50;;;;;;5068244;28;20020;-72
2021/04/04 12:37:24;;;;;;;4.32;2.65;;;23.50;38.50;;;;;;5068105;28;20039;-73
2021/04/04 12:39:55;;;;;;;4.93;2.45;;;23.50;38.40;;;;;;5085915;28;20066;-73
2021/04/04 12:42:28;;;;;;;4.55;2.47;;;23.50;38.40;;;;;;5067790;28;20028;-72
2021/04/04 12:44:54;;;;;;;3.90;2.20;;;23.60;38.40;;;;;;5087232;28;20028;-72
2021/04/04 12:47:25;;;;;;;3.83;2.30;;;23.50;38.30;;;;;;5088546;28;20537;-73
2021/04/04 12:50:09;;;;;;;4.20;2.35;;;23.60;38.40;;;;;;5108425;28;20027;-73
2021/04/04 12:52:41;;;;;;;4.53;2.33;;;23.60;38.40;;;;;;5089373;28;20020;-72
2021/04/04 12:55:40;;;;;;;3.60;2.10;;;23.60;38.40;;;;;;5086848;28;20384;-72
2021/04/04 12:58:07;;;;;;;4.93;2.20;;;23.60;38.40;;;;;;5052626;28;20050;-73
2021/04/04 13:00:38;;;;;;;4.72;2.40;;;23.60;38.40;;;;;;5068575;28;20062;-73
2021/04/04 13:03:05;;;;;;;4.97;2.40;;;23.60;38.30;;;;;;5068487;28;20447;-72
2021/04/04 13:05:53;;;;;;;4.25;2.17;;;23.60;38.30;;;;;;5087197;28;20024;-73
2021/04/04 13:08:27;;;;;;;3.90;2.38;;;23.60;38.30;;;;;;5056124;28;20044;-73
2021/04/04 13:10:57;;;;;;;3.38;2.10;;;23.60;38.40;;;;;;5067323;28;20043;-72
2021/04/04 13:13:29;;;;;;;4.13;2.15;;;23.60;38.30;;;;;;5066334;28;20039;-72
2021/04/04 13:15:59;;;;;;;4.45;2.10;;;23.60;38.30;;;;;;5066983;28;20112;-72